createdAt,value
2022-11-10T00:01:47.633Z,14.90
2022-11-10T00:04:35.123Z,14.90
2022-11-10T00:07:26.908Z,14.90
2022-11-10T00:10:15.563Z,14.90
2022-11-10T00:13:04.021Z,14.80
2022-11-10T00:16:10.156Z,14.80
2022-11-10T00:18:57.577Z,14.80
2022-11-10T00:21:45.054Z,14.90
2022-11-10T00:24:32.554Z,14.80
2022-11-10T00:27:20.097Z,14.80
2022-11-10T00:30:08.161Z,14.90
2022-11-10T00:32:55.553Z,14.80
2022-11-10T00:35:43.058Z,14.90
2022-11-10T00:38:30.616Z,14.90
2022-11-10T00:41:18.102Z,15.00
2022-11-10T00:44:05.538Z,15.00
2022-11-10T00:46:53.038Z,14.90
2022-11-10T00:49:40.463Z,14.90
2022-11-10T00:52:28.010Z,14.90
2022-11-10T00:55:15.557Z,15.00
2022-11-10T00:58:03.074Z,15.00
2022-11-10T01:00:50.577Z,14.90
2022-11-10T01:03:39.055Z,14.90
2022-11-10T01:06:26.807Z,15.00
2022-11-10T01:09:14.782Z,14.90
2022-11-10T01:12:02.205Z,14.80
2022-11-10T01:14:49.672Z,14.90
2022-11-10T01:17:37.777Z,15.00
2022-11-10T01:20:25.843Z,15.00
2022-11-10T01:23:14.882Z,15.00
2022-11-10T01:26:10.244Z,15.00
2022-11-10T01:29:01.427Z,15.10
2022-11-10T01:31:56.418Z,15.00
2022-11-10T01:34:43.923Z,15.00
2022-11-10T01:37:32.833Z,15.00
2022-11-10T01:40:24.092Z,15.00
2022-11-10T01:43:18.895Z,15.10
2022-11-10T01:46:10.117Z,15.10
2022-11-10T01:49:25.498Z,15.00
2022-11-10T01:52:37.327Z,15.00
2022-11-10T01:55:26.338Z,15.00
2022-11-10T01:58:21.134Z,15.00
2022-11-10T02:01:11.937Z,15.00
2022-11-10T02:04:18.077Z,15.10
2022-11-10T02:07:09.828Z,15.10
2022-11-10T02:09:58.453Z,15.10
2022-11-10T02:12:48.460Z,15.10
2022-11-10T02:15:38.502Z,15.10
2022-11-10T02:18:27.717Z,15.10
2022-11-10T02:21:22.913Z,15.20
2022-11-10T02:24:10.477Z,15.20
2022-11-10T02:26:58.322Z,15.20
2022-11-10T02:29:45.788Z,15.10
2022-11-10T02:32:36.672Z,15.10
2022-11-10T02:35:24.212Z,15.30
2022-11-10T02:38:13.783Z,15.30
2022-11-10T02:41:05.229Z,15.30
2022-11-10T02:43:58.406Z,15.40
2022-11-10T02:46:47.774Z,15.40
2022-11-10T02:49:36.381Z,15.50
2022-11-10T02:52:23.857Z,15.10
2022-11-10T02:55:11.342Z,15.10
2022-11-10T02:57:59.511Z,14.90
2022-11-10T03:03:51.829Z,15.00
2022-11-10T03:06:39.529Z,15.10
2022-11-10T03:09:27.058Z,15.00
2022-11-10T03:12:14.570Z,15.10
2022-11-10T03:15:02.077Z,15.20
2022-11-10T03:17:49.935Z,15.10
2022-11-10T03:20:37.373Z,15.20
2022-11-10T03:23:25.016Z,15.20
2022-11-10T03:26:12.957Z,15.20
2022-11-10T03:29:00.411Z,15.10
2022-11-10T03:31:47.901Z,15.10
2022-11-10T03:34:35.330Z,15.10
2022-11-10T03:37:22.892Z,15.20
2022-11-10T03:40:11.332Z,15.20
2022-11-10T03:42:58.816Z,15.20
2022-11-10T03:45:46.230Z,15.20
2022-11-10T03:48:34.021Z,15.10
2022-11-10T03:51:22.478Z,15.10
2022-11-10T03:54:09.951Z,15.20
2022-11-10T03:56:57.357Z,15.20
2022-11-10T03:59:44.825Z,15.20
2022-11-10T04:02:32.319Z,15.30
2022-11-10T04:05:38.288Z,15.20
2022-11-10T04:08:44.522Z,15.30
2022-11-10T04:11:50.805Z,15.30
2022-11-10T04:14:56.838Z,15.30
2022-11-10T04:17:50.930Z,15.30
2022-11-10T04:20:38.367Z,15.30
2022-11-10T04:23:35.023Z,15.20
2022-11-10T04:26:32.895Z,15.30
2022-11-10T04:29:21.293Z,15.30
2022-11-10T04:32:08.768Z,15.40
2022-11-10T04:34:56.274Z,15.30
2022-11-10T04:37:46.207Z,15.30
2022-11-10T04:40:33.692Z,15.40
2022-11-10T04:43:22.270Z,15.30
2022-11-10T04:46:31.627Z,15.40
2022-11-10T04:49:19.092Z,15.40
2022-11-10T04:52:06.575Z,15.30
2022-11-10T04:54:54.066Z,15.40
2022-11-10T04:57:43.433Z,15.40
2022-11-10T05:00:30.931Z,15.40
2022-11-10T05:03:18.695Z,15.50
2022-11-10T05:06:07.792Z,15.50
2022-11-10T05:08:55.182Z,15.50
2022-11-10T05:11:42.629Z,15.50
2022-11-10T05:14:30.153Z,15.50
2022-11-10T05:17:17.619Z,15.50
2022-11-10T05:20:07.033Z,15.50
2022-11-10T05:23:13.223Z,15.60
2022-11-10T05:26:00.734Z,15.60
2022-11-10T05:28:48.170Z,15.60
2022-11-10T05:31:35.588Z,15.60
2022-11-10T05:34:23.299Z,15.60
2022-11-10T05:37:10.978Z,15.70
2022-11-10T05:39:58.438Z,15.60
2022-11-10T05:42:54.302Z,15.60
2022-11-10T05:45:41.717Z,15.60
2022-11-10T05:48:29.149Z,15.70
2022-11-10T05:51:16.728Z,15.70
2022-11-10T05:54:04.337Z,15.70
2022-11-10T05:56:51.773Z,15.70
2022-11-10T05:59:39.209Z,15.70
2022-11-10T06:02:26.785Z,15.70
2022-11-10T06:05:14.222Z,15.80
2022-11-10T06:08:04.600Z,15.70
2022-11-10T06:10:52.068Z,15.80
2022-11-10T06:13:39.579Z,15.80
2022-11-10T06:16:27.139Z,15.80
2022-11-10T06:19:14.559Z,15.80
2022-11-10T06:22:07.386Z,15.80
2022-11-10T06:24:55.200Z,15.90
2022-11-10T06:27:45.653Z,16.00
2022-11-10T06:30:36.472Z,15.70
2022-11-10T06:33:24.191Z,15.70
2022-11-10T06:36:11.887Z,15.30
2022-11-10T06:38:59.333Z,15.10
2022-11-10T06:41:46.817Z,15.30
2022-11-10T06:44:34.254Z,15.60
2022-11-10T06:47:21.846Z,15.70
2022-11-10T06:50:10.120Z,15.80
2022-11-10T06:53:00.042Z,15.90
2022-11-10T06:55:47.453Z,15.90
2022-11-10T06:58:34.917Z,16.00
2022-11-10T07:01:26.515Z,16.10
2022-11-10T07:04:20.542Z,16.10
2022-11-10T07:07:09.423Z,16.20
2022-11-10T07:09:57.004Z,16.30
2022-11-10T07:12:44.413Z,16.30
2022-11-10T07:15:33.733Z,16.50
2022-11-10T07:18:21.147Z,16.40
2022-11-10T07:21:08.855Z,16.40
2022-11-10T07:23:56.318Z,16.40
2022-11-10T07:26:43.807Z,16.60
2022-11-10T07:29:31.316Z,16.60
2022-11-10T07:32:18.798Z,16.70
2022-11-10T07:35:06.444Z,16.80
2022-11-10T07:37:57.191Z,16.80
2022-11-10T07:40:44.676Z,16.90
2022-11-10T07:43:32.219Z,17.10
2022-11-10T07:46:19.662Z,17.10
2022-11-10T07:49:07.292Z,17.10
2022-11-10T07:51:54.753Z,17.20
2022-11-10T07:54:42.210Z,17.00
2022-11-10T07:57:29.733Z,17.10
2022-11-10T08:00:18.538Z,17.10
2022-11-10T08:03:10.941Z,17.20
2022-11-10T08:05:58.898Z,17.00
2022-11-10T08:08:47.803Z,17.20
2022-11-10T08:11:35.350Z,16.90
2022-11-10T08:14:22.859Z,16.90
2022-11-10T08:17:10.335Z,16.70
2022-11-10T08:19:57.758Z,16.70
2022-11-10T08:22:45.613Z,16.80
2022-11-10T08:25:36.028Z,17.00
2022-11-10T08:28:23.897Z,16.80
2022-11-10T08:31:11.374Z,17.00
2022-11-10T08:33:59.198Z,17.00
2022-11-10T08:36:46.655Z,17.00
2022-11-10T08:39:40.792Z,17.10
2022-11-10T08:42:28.257Z,17.20
2022-11-10T08:45:16.068Z,17.20
2022-11-10T08:48:07.613Z,17.20
2022-11-10T08:50:55.102Z,17.30
2022-11-10T08:53:42.562Z,17.20
2022-11-10T08:56:30.418Z,17.30
2022-11-10T08:59:18.860Z,17.30
2022-11-10T09:02:08.128Z,17.30
2022-11-10T09:04:55.598Z,17.40
2022-11-10T09:07:49.142Z,17.50
2022-11-10T09:10:48.148Z,17.60
2022-11-10T09:13:35.841Z,17.90
2022-11-10T09:16:23.497Z,17.80
2022-11-10T09:19:14.329Z,17.70
2022-11-10T09:22:06.117Z,18.00
2022-11-10T09:24:53.634Z,18.00
2022-11-10T09:27:41.029Z,18.10
2022-11-10T09:30:29.051Z,18.10
2022-11-10T09:33:17.458Z,17.90
2022-11-10T09:36:07.322Z,18.10
2022-11-10T09:38:54.739Z,18.10
2022-11-10T09:41:44.262Z,18.10
2022-11-10T09:44:52.749Z,18.30
2022-11-10T09:48:15.736Z,18.30
2022-11-10T09:51:25.303Z,18.50
2022-11-10T09:54:49.248Z,18.60
2022-11-10T09:57:37.597Z,18.50
2022-11-10T10:00:25.231Z,18.70
2022-11-10T10:03:24.516Z,18.50
2022-11-10T10:06:14.936Z,18.90
2022-11-10T10:09:45.433Z,18.80
2022-11-10T10:13:22.849Z,18.60
2022-11-10T10:16:19.032Z,18.70
2022-11-10T10:19:35.264Z,18.80
2022-11-10T10:22:42.938Z,18.70
2022-11-10T10:25:33.181Z,18.60
2022-11-10T10:28:28.342Z,18.70
2022-11-10T10:31:32.303Z,18.80
2022-11-10T10:34:30.503Z,19.00
2022-11-10T10:37:27.376Z,19.20
2022-11-10T10:40:22.861Z,19.10
2022-11-10T10:43:10.307Z,18.90
2022-11-10T10:46:11.811Z,19.20
2022-11-10T10:49:28.643Z,19.40
2022-11-10T10:52:25.182Z,19.70
2022-11-10T10:55:14.289Z,19.80
2022-11-10T10:58:19.658Z,20.10
2022-11-10T11:01:16.591Z,19.70
2022-11-10T11:04:36.235Z,20.30
2022-11-10T11:07:26.029Z,20.20
2022-11-10T11:10:33.372Z,20.30
2022-11-10T11:13:28.276Z,20.50
2022-11-10T11:16:15.812Z,20.50
2022-11-10T11:19:03.268Z,20.40
2022-11-10T11:22:25.375Z,20.10
2022-11-10T11:25:42.182Z,20.00
2022-11-10T11:28:49.953Z,19.80
2022-11-10T11:31:58.309Z,19.80
2022-11-10T11:35:26.093Z,19.70
2022-11-10T11:38:49.688Z,19.70
2022-11-10T11:42:13.769Z,20.00
2022-11-10T11:45:24.829Z,20.10
2022-11-10T11:48:46.055Z,19.90
2022-11-10T11:51:57.587Z,19.80
2022-11-10T11:55:25.618Z,19.70
2022-11-10T11:58:44.152Z,19.70
2022-11-10T12:02:02.811Z,20.40
2022-11-10T12:05:52.687Z,20.10
2022-11-10T12:09:11.888Z,20.40
2022-11-10T12:12:30.198Z,20.60
2022-11-10T12:15:49.042Z,20.90
2022-11-10T12:18:52.657Z,20.90
2022-11-10T12:22:19.224Z,21.10
2022-11-10T12:25:35.002Z,21.30
2022-11-10T12:28:38.936Z,21.60
2022-11-10T12:31:34.447Z,21.90
2022-11-10T12:34:48.258Z,22.10
2022-11-10T12:37:53.078Z,22.10
2022-11-10T12:40:50.827Z,22.00
2022-11-10T12:44:16.950Z,22.30
2022-11-10T12:47:15.711Z,22.50
2022-11-10T12:50:33.897Z,22.30
2022-11-10T12:53:27.801Z,22.60
2022-11-10T12:56:40.260Z,22.00
2022-11-10T12:59:40.225Z,21.60
2022-11-10T13:02:42.418Z,22.40
2022-11-10T13:05:55.930Z,22.30
2022-11-10T13:08:43.321Z,22.30
2022-11-10T13:11:36.754Z,22.10
2022-11-10T13:14:30.854Z,22.10
2022-11-10T13:17:27.755Z,22.30
2022-11-10T13:20:40.259Z,22.20
2022-11-10T13:23:33.380Z,22.00
2022-11-10T13:26:39.470Z,21.40
2022-11-10T13:29:56.465Z,21.70
2022-11-10T13:32:43.925Z,21.10
2022-11-10T13:35:54.985Z,21.60
2022-11-10T13:38:45.330Z,21.60
2022-11-10T13:41:34.711Z,21.80
2022-11-10T13:44:35.266Z,21.90
2022-11-10T13:47:52.736Z,21.90
2022-11-10T13:51:32.001Z,21.90
2022-11-10T13:54:57.347Z,21.70
2022-11-10T13:58:07.640Z,21.60
2022-11-10T14:01:30.722Z,21.40
2022-11-10T14:04:45.234Z,21.30
2022-11-10T14:07:44.841Z,21.20
2022-11-10T14:11:02.721Z,21.10
2022-11-10T14:14:02.461Z,21.10
2022-11-10T14:16:53.198Z,21.00
2022-11-10T14:19:45.208Z,21.10
2022-11-10T14:22:44.371Z,20.80
2022-11-10T14:25:43.266Z,20.90
2022-11-10T14:28:38.171Z,20.90
2022-11-10T14:31:26.622Z,20.90
2022-11-10T14:34:17.967Z,20.80
2022-11-10T14:37:06.650Z,20.70
2022-11-10T14:39:59.126Z,20.40
2022-11-10T14:42:47.816Z,20.50
2022-11-10T14:45:35.321Z,20.50
2022-11-10T14:48:27.951Z,20.50
2022-11-10T14:51:20.221Z,20.40
2022-11-10T14:54:16.104Z,20.40
2022-11-10T14:57:05.844Z,20.30
2022-11-10T14:59:53.402Z,20.40
2022-11-10T15:02:41.547Z,20.10
2022-11-10T15:05:31.675Z,20.10
2022-11-10T15:08:19.412Z,20.00
2022-11-10T15:11:07.291Z,19.90
2022-11-10T15:13:54.681Z,19.80
2022-11-10T15:17:06.236Z,19.80
2022-11-10T15:19:55.106Z,19.60
2022-11-10T15:22:42.791Z,19.50
2022-11-10T15:25:40.587Z,19.40
2022-11-10T15:28:37.161Z,19.20
2022-11-10T15:31:33.586Z,19.10
2022-11-10T15:34:40.811Z,18.90
2022-11-10T15:37:33.726Z,18.70
2022-11-10T15:40:33.696Z,18.50
2022-11-10T15:43:26.381Z,18.40
2022-11-10T15:46:22.581Z,18.20
2022-11-10T15:49:42.947Z,18.10
2022-11-10T15:52:31.862Z,18.00
2022-11-10T15:55:24.877Z,17.90
2022-11-10T15:58:21.881Z,17.80
2022-11-10T16:01:13.330Z,17.70
2022-11-10T16:04:00.756Z,17.50
2022-11-10T16:06:48.355Z,17.40
2022-11-10T16:09:36.044Z,17.30
2022-11-10T16:12:24.090Z,17.20
2022-11-10T16:15:21.248Z,17.10
2022-11-10T16:18:21.838Z,17.00
2022-11-10T16:21:14.637Z,16.90
2022-11-10T16:24:02.619Z,16.80
2022-11-10T16:26:50.203Z,16.70
2022-11-10T16:29:38.677Z,16.70
2022-11-10T16:32:26.176Z,16.50
2022-11-10T16:35:15.042Z,16.40
2022-11-10T16:38:03.107Z,16.40
2022-11-10T16:40:55.504Z,16.30
2022-11-10T16:43:42.967Z,16.20
2022-11-10T16:46:31.257Z,16.20
2022-11-10T16:49:44.356Z,16.20
2022-11-10T16:52:32.077Z,16.10
2022-11-10T16:55:19.654Z,16.10
2022-11-10T16:58:07.459Z,16.10
2022-11-10T17:01:01.173Z,16.00
2022-11-10T17:03:53.742Z,16.00
2022-11-10T17:06:43.368Z,15.90
2022-11-10T17:09:31.379Z,15.90
2022-11-10T17:12:18.932Z,15.80
2022-11-10T17:15:07.310Z,15.80
2022-11-10T17:17:58.832Z,15.80
2022-11-10T17:20:52.389Z,15.90
2022-11-10T17:23:40.736Z,15.90
2022-11-10T17:26:29.828Z,15.90
2022-11-10T17:29:22.190Z,15.90
2022-11-10T17:32:09.823Z,15.80
2022-11-10T17:34:57.377Z,15.80
2022-11-10T17:37:55.115Z,15.70
2022-11-10T17:40:43.987Z,15.60
2022-11-10T17:43:31.418Z,15.60
2022-11-10T17:46:18.863Z,15.50
2022-11-10T17:49:06.455Z,15.40
2022-11-10T17:51:53.913Z,15.40
2022-11-10T17:54:41.448Z,15.40
2022-11-10T17:57:28.859Z,15.30
2022-11-10T18:00:18.893Z,15.30
2022-11-10T18:03:09.389Z,15.20
2022-11-10T18:05:57.318Z,15.10
2022-11-10T18:08:45.694Z,15.00
2022-11-10T18:11:33.318Z,15.00
2022-11-10T18:14:20.839Z,15.00
2022-11-10T18:17:08.500Z,15.00
2022-11-10T18:19:56.173Z,14.90
2022-11-10T18:22:43.891Z,14.90
2022-11-10T18:25:31.356Z,14.80
2022-11-10T18:28:19.034Z,14.80
2022-11-10T18:31:09.816Z,14.80
2022-11-10T18:33:57.358Z,14.70
2022-11-10T18:36:44.808Z,14.70
2022-11-10T18:39:32.377Z,14.80
2022-11-10T18:42:19.802Z,14.80
2022-11-10T18:45:07.792Z,14.70
2022-11-10T18:48:03.282Z,14.60
2022-11-10T18:50:51.918Z,14.50
2022-11-10T18:53:39.453Z,14.40
2022-11-10T18:56:27.537Z,14.40
2022-11-10T18:59:17.722Z,14.40
2022-11-10T19:02:05.938Z,14.40
2022-11-10T19:04:53.928Z,14.30
2022-11-10T19:07:42.217Z,14.30
2022-11-10T19:10:29.681Z,14.30
2022-11-10T19:13:17.753Z,14.20
2022-11-10T19:16:14.514Z,14.20
2022-11-10T19:19:02.074Z,14.30
2022-11-10T19:21:49.527Z,14.10
2022-11-10T19:24:53.761Z,14.10
2022-11-10T19:27:44.392Z,14.10
2022-11-10T19:30:31.919Z,14.10
2022-11-10T19:33:19.542Z,13.90
2022-11-10T19:36:34.698Z,13.90
2022-11-10T19:39:23.429Z,13.90
2022-11-10T19:42:11.507Z,14.00
2022-11-10T19:45:00.629Z,13.90
2022-11-10T19:47:48.093Z,13.80
2022-11-10T19:50:35.467Z,13.80
2022-11-10T19:53:23.268Z,13.70
2022-11-10T19:56:20.205Z,13.70
2022-11-10T19:59:08.244Z,13.60
2022-11-10T20:01:59.297Z,13.60
2022-11-10T20:05:07.067Z,13.60
2022-11-10T20:08:12.685Z,13.60
2022-11-10T20:11:06.417Z,13.60
2022-11-10T20:13:57.175Z,13.60
2022-11-10T20:16:44.671Z,13.70
2022-11-10T20:19:40.760Z,13.60
2022-11-10T20:22:28.472Z,13.60
2022-11-10T20:25:16.378Z,13.60
2022-11-10T20:28:06.857Z,13.50
2022-11-10T20:30:57.708Z,13.50
2022-11-10T20:33:45.666Z,13.50
2022-11-10T20:36:34.102Z,13.40
2022-11-10T20:39:22.123Z,13.40
2022-11-10T20:42:10.563Z,13.40
2022-11-10T20:44:58.177Z,13.40
2022-11-10T20:47:45.832Z,13.40
2022-11-10T20:50:33.333Z,13.40
2022-11-10T20:53:21.038Z,13.40
2022-11-10T20:56:12.317Z,13.30
2022-11-10T20:58:59.924Z,13.40
2022-11-10T21:01:47.610Z,13.40
2022-11-10T21:04:40.298Z,13.30
2022-11-10T21:07:30.467Z,13.10
2022-11-10T21:10:18.092Z,13.10
2022-11-10T21:13:05.916Z,13.00
2022-11-10T21:15:57.246Z,13.00
2022-11-10T21:18:44.717Z,12.90
2022-11-10T21:21:35.327Z,12.90
2022-11-10T21:24:22.845Z,12.90
2022-11-10T21:27:12.425Z,12.80
2022-11-10T21:30:00.414Z,12.80
2022-11-10T21:32:47.865Z,12.90
2022-11-10T21:35:38.364Z,12.90
2022-11-10T21:38:26.045Z,12.90
2022-11-10T21:41:14.295Z,13.00
2022-11-10T21:44:01.816Z,13.00
2022-11-10T21:46:49.326Z,12.90
2022-11-10T21:49:36.861Z,12.80
2022-11-10T21:52:24.361Z,12.90
2022-11-10T21:55:11.986Z,12.80
2022-11-10T21:58:00.781Z,12.80
2022-11-10T22:00:48.356Z,12.90
2022-11-10T22:03:36.198Z,12.90
2022-11-10T22:06:43.741Z,12.90
2022-11-10T22:09:49.870Z,13.00
2022-11-10T22:12:56.122Z,13.10
2022-11-10T22:16:02.482Z,13.30
2022-11-10T22:18:50.066Z,13.50
2022-11-10T22:21:37.671Z,13.60
2022-11-10T22:24:28.627Z,13.70
2022-11-10T22:27:16.287Z,13.80
2022-11-10T22:30:04.875Z,13.90
2022-11-10T22:32:54.038Z,13.90
2022-11-10T22:35:44.526Z,14.00
2022-11-10T22:38:37.780Z,14.10
2022-11-10T22:41:44.208Z,14.10
2022-11-10T22:44:31.970Z,14.20
2022-11-10T22:47:19.430Z,14.10
2022-11-10T22:50:07.718Z,14.20
2022-11-10T22:52:55.321Z,14.30
2022-11-10T22:55:42.885Z,14.20
2022-11-10T22:58:30.369Z,14.20
2022-11-10T23:01:18.058Z,14.20
2022-11-10T23:04:06.041Z,14.20
2022-11-10T23:06:53.681Z,14.20
2022-11-10T23:09:41.229Z,14.10
2022-11-10T23:12:28.910Z,14.20
2022-11-10T23:15:16.630Z,14.10
2022-11-10T23:18:06.824Z,14.00
2022-11-10T23:21:04.544Z,13.90
2022-11-10T23:23:53.852Z,13.70
2022-11-10T23:26:41.272Z,13.80
2022-11-10T23:29:28.659Z,13.80
2022-11-10T23:32:16.102Z,13.90
2022-11-10T23:35:03.584Z,13.80
2022-11-10T23:37:51.205Z,13.90
2022-11-10T23:40:39.050Z,13.70
2022-11-10T23:43:27.868Z,13.70
2022-11-10T23:46:16.022Z,13.50
2022-11-10T23:49:03.569Z,13.30
2022-11-10T23:51:51.031Z,13.30
2022-11-10T23:54:38.447Z,13.00
2022-11-10T23:57:25.983Z,13.00
